createdAt,value
2022-07-29T00:00:02.265Z,23.05
2022-07-29T00:02:49.142Z,23.00
2022-07-29T00:05:16.262Z,22.97
2022-07-29T00:07:43.131Z,22.96
2022-07-29T00:10:10.013Z,22.90
2022-07-29T00:12:37.200Z,22.85
2022-07-29T00:15:04.978Z,22.88
2022-07-29T00:17:32.218Z,22.86
2022-07-29T00:19:59.269Z,22.89
2022-07-29T00:22:26.119Z,22.92
2022-07-29T00:24:52.887Z,22.95
2022-07-29T00:27:19.899Z,22.94
2022-07-29T00:29:46.742Z,22.96
2022-07-29T00:32:13.605Z,22.96
2022-07-29T00:34:59.216Z,23.02
2022-07-29T00:37:26.110Z,22.93
2022-07-29T00:39:53.071Z,22.88
2022-07-29T00:42:19.871Z,22.89
2022-07-29T00:44:46.649Z,22.89
2022-07-29T00:47:14.114Z,22.83
2022-07-29T00:49:42.787Z,22.80
2022-07-29T00:52:11.123Z,22.81
2022-07-29T00:54:44.246Z,22.81
2022-07-29T00:57:13.143Z,22.79
2022-07-29T00:59:40.441Z,22.80
2022-07-29T01:02:07.273Z,22.77
2022-07-29T01:04:34.507Z,22.77
2022-07-29T01:07:05.473Z,22.75
2022-07-29T01:09:43.076Z,22.77
2022-07-29T01:12:17.258Z,22.81
2022-07-29T01:14:44.581Z,22.77
2022-07-29T01:17:21.024Z,22.76
2022-07-29T01:20:07.191Z,22.76
2022-07-29T01:23:08.265Z,22.65
2022-07-29T01:26:09.340Z,22.63
2022-07-29T01:28:44.509Z,22.62
2022-07-29T01:31:24.359Z,22.62
2022-07-29T01:34:06.402Z,22.63
2022-07-29T01:36:47.989Z,22.54
2022-07-29T01:39:22.312Z,22.52
2022-07-29T01:41:59.153Z,22.51
2022-07-29T01:44:33.967Z,22.51
2022-07-29T01:47:06.091Z,22.50
2022-07-29T01:49:37.748Z,22.49
2022-07-29T01:52:08.605Z,22.48
2022-07-29T01:54:46.689Z,22.48
2022-07-29T01:57:18.416Z,22.44
2022-07-29T01:59:47.497Z,22.46
2022-07-29T02:02:17.647Z,22.44
2022-07-29T02:04:49.354Z,22.38
2022-07-29T02:07:20.437Z,22.36
2022-07-29T02:09:50.363Z,22.29
2022-07-29T02:12:20.372Z,22.26
2022-07-29T02:14:51.612Z,22.21
2022-07-29T02:17:25.924Z,22.15
2022-07-29T02:19:58.159Z,22.14
2022-07-29T02:22:27.026Z,22.23
2022-07-29T02:24:54.581Z,22.16
2022-07-29T02:27:21.726Z,22.21
2022-07-29T02:29:51.160Z,22.17
2022-07-29T02:32:19.010Z,22.10
2022-07-29T02:34:47.364Z,21.99
2022-07-29T02:37:16.981Z,21.91
2022-07-29T02:39:45.742Z,21.83
2022-07-29T02:42:15.877Z,21.85
2022-07-29T02:44:43.303Z,21.78
2022-07-29T02:47:22.152Z,21.80
2022-07-29T02:50:03.488Z,21.83
2022-07-29T02:52:36.375Z,21.71
2022-07-29T02:55:09.602Z,21.71
2022-07-29T02:57:54.457Z,21.68
2022-07-29T03:00:26.970Z,21.56
2022-07-29T03:02:57.258Z,21.63
2022-07-29T03:05:25.009Z,21.56
2022-07-29T03:08:02.042Z,21.40
2022-07-29T03:10:29.446Z,21.40
2022-07-29T03:12:57.471Z,21.37
2022-07-29T03:15:27.078Z,21.30
2022-07-29T03:17:54.745Z,21.26
2022-07-29T03:20:21.934Z,21.27
2022-07-29T03:22:48.810Z,21.15
2022-07-29T03:25:18.579Z,21.02
2022-07-29T03:27:45.965Z,20.91
2022-07-29T03:30:18.282Z,20.91
2022-07-29T03:32:49.778Z,20.94
2022-07-29T03:35:23.581Z,21.08
2022-07-29T03:37:50.575Z,21.09
2022-07-29T03:40:28.790Z,21.15
2022-07-29T03:42:57.180Z,21.16
2022-07-29T03:45:26.341Z,21.20
2022-07-29T03:48:00.991Z,21.20
2022-07-29T03:50:31.658Z,21.19
2022-07-29T03:52:59.272Z,21.16
2022-07-29T03:55:29.228Z,21.18
2022-07-29T03:57:58.016Z,21.15
2022-07-29T04:00:26.566Z,21.22
2022-07-29T04:02:53.440Z,21.20
2022-07-29T04:05:20.547Z,21.23
2022-07-29T04:07:49.337Z,21.32
2022-07-29T04:10:17.900Z,21.32
2022-07-29T04:12:57.352Z,21.33
2022-07-29T04:15:24.175Z,21.33
2022-07-29T04:17:51.117Z,21.45
2022-07-29T04:20:18.346Z,21.44
2022-07-29T04:22:45.140Z,21.42
2022-07-29T04:25:11.949Z,21.44
2022-07-29T04:27:58.855Z,21.41
2022-07-29T04:30:25.818Z,21.49
2022-07-29T04:32:53.062Z,21.45
2022-07-29T04:35:20.931Z,21.50
2022-07-29T04:37:48.115Z,21.55
2022-07-29T04:40:15.200Z,21.56
2022-07-29T04:42:46.725Z,21.57
2022-07-29T04:45:15.352Z,21.66
2022-07-29T04:47:43.222Z,21.67
2022-07-29T04:50:10.723Z,21.77
2022-07-29T04:52:38.059Z,21.89
2022-07-29T04:55:06.265Z,21.98
2022-07-29T04:57:33.365Z,22.02
2022-07-29T05:00:00.153Z,22.12
2022-07-29T05:02:27.228Z,22.19
2022-07-29T05:04:54.140Z,22.35
2022-07-29T05:07:20.889Z,22.47
2022-07-29T05:09:48.557Z,22.62
2022-07-29T05:12:15.323Z,22.76
2022-07-29T05:14:42.110Z,22.77
2022-07-29T05:17:09.068Z,22.81
2022-07-29T05:19:39.503Z,22.94
2022-07-29T05:22:07.205Z,22.97
2022-07-29T05:24:34.189Z,23.01
2022-07-29T05:27:00.985Z,23.09
2022-07-29T05:29:43.376Z,23.24
2022-07-29T05:32:12.822Z,23.40
2022-07-29T05:34:51.000Z,23.48
2022-07-29T05:37:21.908Z,23.58
2022-07-29T05:39:56.815Z,23.65
2022-07-29T05:42:27.295Z,23.81
2022-07-29T05:44:55.036Z,23.82
2022-07-29T05:47:21.892Z,23.85
2022-07-29T05:49:49.426Z,23.81
2022-07-29T05:52:16.232Z,23.97
2022-07-29T05:54:43.184Z,24.04
2022-07-29T05:57:17.113Z,24.04
2022-07-29T05:59:43.851Z,24.03
2022-07-29T06:02:10.629Z,24.06
2022-07-29T06:04:37.622Z,24.17
2022-07-29T06:07:05.437Z,24.05
2022-07-29T06:09:36.003Z,24.16
2022-07-29T06:12:04.178Z,24.30
2022-07-29T06:14:31.031Z,24.41
2022-07-29T06:16:57.774Z,24.50
2022-07-29T06:19:24.740Z,24.55
2022-07-29T06:21:51.988Z,24.63
2022-07-29T06:24:19.237Z,24.69
2022-07-29T06:26:46.496Z,24.77
2022-07-29T06:29:13.352Z,24.81
2022-07-29T06:31:40.455Z,24.78
2022-07-29T06:34:07.771Z,24.85
2022-07-29T06:36:38.313Z,24.93
2022-07-29T06:39:11.618Z,24.96
2022-07-29T06:41:39.225Z,24.98
2022-07-29T06:44:06.001Z,24.96
2022-07-29T06:46:33.685Z,25.13
2022-07-29T06:49:02.541Z,25.16
2022-07-29T06:51:29.934Z,25.23
2022-07-29T06:54:02.325Z,25.24
2022-07-29T06:56:32.541Z,25.35
2022-07-29T06:59:06.233Z,25.47
2022-07-29T07:01:33.283Z,25.58
2022-07-29T07:04:00.131Z,25.83
2022-07-29T07:06:27.090Z,25.95
2022-07-29T07:08:54.686Z,26.07
2022-07-29T07:11:21.710Z,26.16
2022-07-29T07:13:48.459Z,26.31
2022-07-29T07:16:15.499Z,26.49
2022-07-29T07:18:42.331Z,26.61
2022-07-29T07:21:11.961Z,26.75
2022-07-29T07:23:45.927Z,26.90
2022-07-29T07:26:12.742Z,26.98
2022-07-29T07:28:39.493Z,27.03
2022-07-29T07:31:06.524Z,27.17
2022-07-29T07:33:33.318Z,27.21
2022-07-29T07:36:00.318Z,27.27
2022-07-29T07:38:27.380Z,27.43
2022-07-29T07:40:54.145Z,27.37
2022-07-29T07:43:20.919Z,27.39
2022-07-29T07:45:47.946Z,27.39
2022-07-29T07:48:14.797Z,27.49
2022-07-29T07:50:41.585Z,27.37
2022-07-29T07:53:08.637Z,27.40
2022-07-29T07:56:08.868Z,27.45
2022-07-29T07:58:28.146Z,27.54
2022-07-29T08:00:54.956Z,27.55
2022-07-29T08:03:22.171Z,27.71
2022-07-29T08:05:51.581Z,27.81
2022-07-29T08:08:18.830Z,27.88
2022-07-29T08:10:54.237Z,27.89
2022-07-29T08:13:22.552Z,27.90
2022-07-29T08:15:58.471Z,28.03
2022-07-29T08:18:27.165Z,28.08
2022-07-29T08:20:54.175Z,28.18
2022-07-29T08:23:21.527Z,28.30
2022-07-29T08:25:50.244Z,28.44
2022-07-29T08:28:18.369Z,28.38
2022-07-29T08:30:45.414Z,28.45
2022-07-29T08:33:12.339Z,28.60
2022-07-29T08:35:40.414Z,28.76
2022-07-29T08:38:07.279Z,28.85
2022-07-29T08:40:34.334Z,28.84
2022-07-29T08:43:10.396Z,28.91
2022-07-29T08:45:48.023Z,28.86
2022-07-29T08:48:17.104Z,28.86
2022-07-29T08:50:46.319Z,29.02
2022-07-29T08:53:15.964Z,29.09
2022-07-29T08:55:44.727Z,29.25
2022-07-29T08:58:15.777Z,29.51
2022-07-29T09:00:46.188Z,29.89
2022-07-29T09:03:20.434Z,29.93
2022-07-29T09:05:48.419Z,29.97
2022-07-29T09:08:17.057Z,30.08
2022-07-29T09:10:44.732Z,30.27
2022-07-29T09:13:11.500Z,30.40
2022-07-29T09:15:38.500Z,30.71
2022-07-29T09:18:05.282Z,30.58
2022-07-29T09:20:50.563Z,31.14
2022-07-29T09:23:23.244Z,31.74
2022-07-29T09:25:51.534Z,32.41
2022-07-29T09:28:19.045Z,32.70
2022-07-29T09:30:53.685Z,33.07
2022-07-29T09:33:22.114Z,33.08
2022-07-29T09:36:01.923Z,33.36
2022-07-29T09:38:29.894Z,33.33
2022-07-29T09:41:06.394Z,33.79
2022-07-29T09:43:34.949Z,33.72
2022-07-29T09:46:15.061Z,34.03
2022-07-29T09:48:42.265Z,33.97
2022-07-29T09:51:27.060Z,34.20
2022-07-29T09:54:26.768Z,34.20
2022-07-29T09:56:54.767Z,34.12
2022-07-29T09:59:25.291Z,34.37
2022-07-29T10:01:52.431Z,34.22
2022-07-29T10:04:20.213Z,34.54
2022-07-29T10:07:03.777Z,34.19
2022-07-29T10:09:31.653Z,33.99
2022-07-29T10:12:10.025Z,33.75
2022-07-29T10:14:37.716Z,33.53
2022-07-29T10:17:06.933Z,33.89
2022-07-29T10:19:36.118Z,34.22
2022-07-29T10:22:06.126Z,34.12
2022-07-29T10:24:33.911Z,33.72
2022-07-29T10:27:03.432Z,34.00
2022-07-29T10:29:32.356Z,33.87
2022-07-29T10:32:05.665Z,33.36
2022-07-29T10:35:02.561Z,32.83
2022-07-29T10:37:47.938Z,32.92
2022-07-29T10:40:45.613Z,32.46
2022-07-29T10:43:33.772Z,32.23
2022-07-29T10:46:02.152Z,33.07
2022-07-29T10:48:30.089Z,33.58
2022-07-29T10:51:04.976Z,33.89
2022-07-29T10:53:54.098Z,34.12
2022-07-29T10:56:38.921Z,34.29
2022-07-29T10:59:21.732Z,34.36
2022-07-29T11:02:06.244Z,34.41
2022-07-29T11:04:44.464Z,34.59
2022-07-29T11:07:12.228Z,34.74
2022-07-29T11:09:39.868Z,34.98
2022-07-29T11:12:37.717Z,35.41
2022-07-29T11:15:09.663Z,35.33
2022-07-29T11:17:54.804Z,35.70
2022-07-29T11:20:37.896Z,35.82
2022-07-29T11:23:36.557Z,35.88
2022-07-29T11:26:10.844Z,36.46
2022-07-29T11:29:04.264Z,35.34
2022-07-29T11:31:37.726Z,35.12
2022-07-29T11:34:30.272Z,35.78
2022-07-29T11:37:12.588Z,35.96
2022-07-29T11:40:08.402Z,35.34
2022-07-29T11:42:41.747Z,35.51
2022-07-29T11:45:42.593Z,35.19
2022-07-29T11:48:27.585Z,35.46
2022-07-29T11:50:48.384Z,36.17
2022-07-29T11:53:16.131Z,36.49
2022-07-29T11:55:50.975Z,36.69
2022-07-29T11:58:26.219Z,36.80
2022-07-29T12:00:55.330Z,35.20
2022-07-29T12:06:18.038Z,33.78
2022-07-29T12:08:45.962Z,33.70
2022-07-29T12:11:22.658Z,34.41
2022-07-29T12:13:51.969Z,34.86
2022-07-29T12:16:26.020Z,35.02
2022-07-29T12:19:02.015Z,35.74
2022-07-29T12:21:56.488Z,36.46
2022-07-29T12:24:26.865Z,36.96
2022-07-29T12:27:01.123Z,37.09
2022-07-29T12:29:33.750Z,37.11
2022-07-29T12:32:03.287Z,37.37
2022-07-29T12:34:30.945Z,37.34
2022-07-29T12:36:57.956Z,37.66
2022-07-29T12:39:27.488Z,37.24
2022-07-29T12:42:04.709Z,37.95
2022-07-29T12:44:49.363Z,37.87
2022-07-29T12:47:17.313Z,37.80
2022-07-29T12:49:44.091Z,37.63
2022-07-29T12:52:28.894Z,37.88
2022-07-29T12:54:56.286Z,37.56
2022-07-29T12:57:23.332Z,36.02
2022-07-29T13:00:14.224Z,35.83
2022-07-29T13:02:42.651Z,36.03
2022-07-29T13:05:11.304Z,36.12
2022-07-29T13:07:53.944Z,35.66
2022-07-29T13:10:24.379Z,35.82
2022-07-29T13:13:15.935Z,35.95
2022-07-29T13:15:45.099Z,36.18
2022-07-29T13:18:31.673Z,35.96
2022-07-29T13:21:12.002Z,36.91
2022-07-29T13:23:39.117Z,37.01
2022-07-29T13:26:10.472Z,36.96
2022-07-29T13:28:37.325Z,36.54
2022-07-29T13:31:05.627Z,37.24
2022-07-29T13:33:32.747Z,37.48
2022-07-29T13:35:59.524Z,36.95
2022-07-29T13:38:30.896Z,37.05
2022-07-29T13:40:58.818Z,36.99
2022-07-29T13:43:25.600Z,37.56
2022-07-29T13:45:53.085Z,37.93
2022-07-29T13:48:20.165Z,36.08
2022-07-29T13:50:47.657Z,35.26
2022-07-29T13:53:17.943Z,35.12
2022-07-29T13:55:45.979Z,34.40
2022-07-29T13:58:12.772Z,34.54
2022-07-29T14:00:39.554Z,35.23
2022-07-29T14:03:07.427Z,36.29
2022-07-29T14:05:34.299Z,36.96
2022-07-29T14:08:01.067Z,37.36
2022-07-29T14:10:28.152Z,38.05
2022-07-29T14:12:54.897Z,37.35
2022-07-29T14:15:21.868Z,38.23
2022-07-29T14:17:48.836Z,38.51
2022-07-29T14:20:16.636Z,38.70
2022-07-29T14:22:44.915Z,38.98
2022-07-29T14:25:14.423Z,39.42
2022-07-29T14:27:44.304Z,39.24
2022-07-29T14:30:11.750Z,39.68
2022-07-29T14:32:38.771Z,40.36
2022-07-29T14:35:06.823Z,40.37
2022-07-29T14:37:39.940Z,39.32
2022-07-29T14:40:08.998Z,39.13
2022-07-29T14:42:37.094Z,38.04
2022-07-29T14:45:05.766Z,38.11
2022-07-29T14:47:32.771Z,37.96
2022-07-29T14:50:00.736Z,38.83
2022-07-29T14:52:27.467Z,39.24
2022-07-29T14:54:54.588Z,39.89
2022-07-29T14:57:21.339Z,39.43
2022-07-29T14:59:48.144Z,39.74
2022-07-29T15:02:15.166Z,38.81
2022-07-29T15:04:42.008Z,38.47
2022-07-29T15:07:09.404Z,37.24
2022-07-29T15:09:40.276Z,37.88
2022-07-29T15:12:16.593Z,38.21
2022-07-29T15:14:43.606Z,38.78
2022-07-29T15:17:10.521Z,38.87
2022-07-29T15:19:37.350Z,38.48
2022-07-29T15:22:06.425Z,39.17
2022-07-29T15:24:33.455Z,40.10
2022-07-29T15:27:00.194Z,39.92
2022-07-29T15:29:27.140Z,40.36
2022-07-29T15:31:54.126Z,41.55
2022-07-29T15:34:21.740Z,42.18
2022-07-29T15:36:52.405Z,41.42
2022-07-29T15:39:20.952Z,40.32
2022-07-29T15:41:47.746Z,40.29
2022-07-29T15:44:14.739Z,41.59
2022-07-29T15:47:01.017Z,42.42
2022-07-29T15:49:48.308Z,41.70
2022-07-29T15:52:24.760Z,42.00
2022-07-29T15:54:52.499Z,40.32
2022-07-29T15:57:19.377Z,39.86
2022-07-29T15:59:46.111Z,40.84
2022-07-29T16:02:17.762Z,41.19
2022-07-29T16:04:44.722Z,41.02
2022-07-29T16:07:11.625Z,40.62
2022-07-29T16:09:38.660Z,39.08
2022-07-29T16:12:14.604Z,37.92
2022-07-29T16:14:43.400Z,37.78
2022-07-29T16:17:10.208Z,36.64
2022-07-29T16:19:41.680Z,35.43
2022-07-29T16:22:08.641Z,35.01
2022-07-29T16:24:35.408Z,35.00
2022-07-29T16:27:02.344Z,35.15
2022-07-29T16:29:29.433Z,35.13
2022-07-29T16:31:57.061Z,35.76
2022-07-29T16:34:23.897Z,35.12
2022-07-29T16:36:51.061Z,35.96
2022-07-29T16:39:17.810Z,36.32
2022-07-29T16:41:44.692Z,35.68
2022-07-29T16:44:11.677Z,36.09
2022-07-29T16:46:39.024Z,37.45
2022-07-29T16:49:08.380Z,38.65
2022-07-29T16:51:35.423Z,38.39
2022-07-29T16:54:02.157Z,38.71
2022-07-29T16:56:28.890Z,39.86
2022-07-29T16:58:58.046Z,40.51
2022-07-29T17:01:24.853Z,40.27
2022-07-29T17:04:06.641Z,40.59
2022-07-29T17:06:39.873Z,40.62
2022-07-29T17:09:07.934Z,40.29
2022-07-29T17:11:51.560Z,40.00
2022-07-29T17:14:25.231Z,39.81
2022-07-29T17:17:01.299Z,39.08
2022-07-29T17:19:30.604Z,37.43
2022-07-29T17:22:06.338Z,36.41
2022-07-29T17:24:35.955Z,35.00
2022-07-29T17:27:02.981Z,34.51
2022-07-29T17:29:29.717Z,34.13
2022-07-29T17:31:57.730Z,33.70
2022-07-29T17:34:24.753Z,33.48
2022-07-29T17:36:51.551Z,33.02
2022-07-29T17:39:18.403Z,32.74
2022-07-29T17:41:46.860Z,32.52
2022-07-29T17:44:13.660Z,32.34
2022-07-29T17:46:40.688Z,32.20
2022-07-29T17:49:07.774Z,32.15
2022-07-29T17:51:34.666Z,31.96
2022-07-29T17:54:01.463Z,31.99
2022-07-29T17:56:28.440Z,31.79
2022-07-29T17:58:55.298Z,31.83
2022-07-29T18:01:23.699Z,31.68
2022-07-29T18:03:50.730Z,31.47
2022-07-29T18:06:17.517Z,31.28
2022-07-29T18:08:47.497Z,31.25
2022-07-29T18:11:15.447Z,31.15
2022-07-29T18:13:42.412Z,31.23
2022-07-29T18:16:09.476Z,31.03
2022-07-29T18:18:36.611Z,30.83
2022-07-29T18:21:03.981Z,30.67
2022-07-29T18:23:31.330Z,30.58
2022-07-29T18:25:58.441Z,30.53
2022-07-29T18:28:25.214Z,30.42
2022-07-29T18:30:53.067Z,30.29
2022-07-29T18:33:22.057Z,30.17
2022-07-29T18:35:51.595Z,30.15
2022-07-29T18:38:19.278Z,29.95
2022-07-29T18:40:48.726Z,29.83
2022-07-29T18:43:15.640Z,29.66
2022-07-29T18:45:42.777Z,29.58
2022-07-29T18:48:12.868Z,29.43
2022-07-29T18:50:41.323Z,29.35
2022-07-29T18:53:08.610Z,29.33
2022-07-29T18:55:35.588Z,29.25
2022-07-29T18:58:02.346Z,29.12
2022-07-29T19:00:30.502Z,28.86
2022-07-29T19:02:57.597Z,28.76
2022-07-29T19:05:24.802Z,28.65
2022-07-29T19:07:51.732Z,28.67
2022-07-29T19:10:18.819Z,28.49
2022-07-29T19:12:45.694Z,28.41
2022-07-29T19:15:12.554Z,28.26
2022-07-29T19:17:47.952Z,28.13
2022-07-29T19:20:14.769Z,28.06
2022-07-29T19:22:41.807Z,28.02
2022-07-29T19:25:09.918Z,28.02
2022-07-29T19:27:37.091Z,28.06
2022-07-29T19:30:07.007Z,28.03
2022-07-29T19:32:33.959Z,27.98
2022-07-29T19:35:19.372Z,27.92
2022-07-29T19:37:46.346Z,27.86
2022-07-29T19:40:13.460Z,27.85
2022-07-29T19:42:40.236Z,27.77
2022-07-29T19:45:07.671Z,27.75
2022-07-29T19:47:34.644Z,27.68
2022-07-29T19:50:01.912Z,27.63
2022-07-29T19:52:28.968Z,27.61
2022-07-29T19:54:55.855Z,27.57
2022-07-29T19:57:22.729Z,27.52
2022-07-29T19:59:51.213Z,27.45
2022-07-29T20:02:18.084Z,27.33
2022-07-29T20:04:45.177Z,27.25
2022-07-29T20:07:13.091Z,27.17
2022-07-29T20:09:41.323Z,27.18
2022-07-29T20:12:11.674Z,27.10
2022-07-29T20:14:38.768Z,27.08
2022-07-29T20:17:05.684Z,26.99
2022-07-29T20:19:33.307Z,27.00
2022-07-29T20:22:00.776Z,26.99
2022-07-29T20:24:27.643Z,26.93
2022-07-29T20:26:54.509Z,26.87
2022-07-29T20:29:22.100Z,26.94
2022-07-29T20:31:52.948Z,26.87
2022-07-29T20:34:23.722Z,26.94
2022-07-29T20:36:50.556Z,26.82
2022-07-29T20:39:17.348Z,26.69
2022-07-29T20:41:44.495Z,26.70
2022-07-29T20:44:11.290Z,26.66
2022-07-29T20:46:39.359Z,26.62
2022-07-29T20:49:07.426Z,26.66
2022-07-29T20:51:43.586Z,26.78
2022-07-29T20:54:11.750Z,26.72
2022-07-29T20:56:39.304Z,26.72
2022-07-29T20:59:06.046Z,26.64
2022-07-29T21:01:33.176Z,26.55
2022-07-29T21:04:01.344Z,26.50
2022-07-29T21:06:28.196Z,26.47
2022-07-29T21:08:57.883Z,26.30
2022-07-29T21:11:44.495Z,26.28
2022-07-29T21:14:23.191Z,26.20
2022-07-29T21:16:50.315Z,26.06
2022-07-29T21:19:17.392Z,26.02
2022-07-29T21:21:44.136Z,25.92
2022-07-29T21:24:12.222Z,25.81
2022-07-29T21:26:39.381Z,25.63
2022-07-29T21:29:06.152Z,25.58
2022-07-29T21:31:32.939Z,25.51
2022-07-29T21:33:59.885Z,25.45
2022-07-29T21:36:47.905Z,25.41
2022-07-29T21:39:13.580Z,25.41
2022-07-29T21:41:40.324Z,25.29
2022-07-29T21:44:07.068Z,25.19
2022-07-29T21:46:34.039Z,25.11
2022-07-29T21:49:00.870Z,25.03
2022-07-29T21:51:27.653Z,24.98
2022-07-29T21:53:54.631Z,24.94
2022-07-29T21:56:24.521Z,24.77
2022-07-29T21:58:54.379Z,24.74
2022-07-29T22:01:21.455Z,24.59
2022-07-29T22:03:48.248Z,24.56
2022-07-29T22:06:17.300Z,24.45
2022-07-29T22:08:46.051Z,24.52
2022-07-29T22:11:13.292Z,24.38
2022-07-29T22:13:40.179Z,24.40
2022-07-29T22:16:07.506Z,24.30
2022-07-29T22:18:34.232Z,24.29
2022-07-29T22:21:01.039Z,24.29
2022-07-29T22:23:27.952Z,24.30
2022-07-29T22:25:54.717Z,24.29
2022-07-29T22:28:21.510Z,24.26
2022-07-29T22:30:48.575Z,24.26
2022-07-29T22:33:17.455Z,24.19
2022-07-29T22:35:45.307Z,24.15
2022-07-29T22:38:18.801Z,24.08
2022-07-29T22:40:46.899Z,24.10
2022-07-29T22:43:15.597Z,24.08
2022-07-29T22:45:42.630Z,24.01
2022-07-29T22:48:10.529Z,24.00
2022-07-29T22:50:38.272Z,24.04
2022-07-29T22:53:05.217Z,24.04
2022-07-29T22:55:31.955Z,23.95
2022-07-29T22:57:58.703Z,23.97
2022-07-29T23:00:25.812Z,23.90
2022-07-29T23:02:52.603Z,23.83
2022-07-29T23:05:19.591Z,23.77
2022-07-29T23:07:46.538Z,23.75
2022-07-29T23:10:13.291Z,23.74
2022-07-29T23:12:40.047Z,23.67
2022-07-29T23:15:07.817Z,23.65
2022-07-29T23:17:36.344Z,23.63
2022-07-29T23:20:08.899Z,23.54
2022-07-29T23:22:37.122Z,23.48
2022-07-29T23:25:05.010Z,23.52
2022-07-29T23:27:31.937Z,23.52
2022-07-29T23:29:59.149Z,23.48
2022-07-29T23:32:25.876Z,23.42
2022-07-29T23:34:52.621Z,23.39
2022-07-29T23:37:19.877Z,23.41
2022-07-29T23:39:46.679Z,23.36
2022-07-29T23:42:13.573Z,23.33
2022-07-29T23:44:40.527Z,23.30
2022-07-29T23:47:07.266Z,23.27
2022-07-29T23:49:34.468Z,23.24
2022-07-29T23:52:01.408Z,23.20
2022-07-29T23:54:28.173Z,23.16
2022-07-29T23:56:57.568Z,23.03
2022-07-29T23:59:25.221Z,22.94
